Time;durP1;ratioP1;P1;durP2;ratioP2;P2;SDS_P1;SDS_P2;PMS_P1;PMS_P2;Temp;Humidity;BMP_temperature;BMP_pressure;BME280_temperature;BME280_humidity;BME280_pressure;Samples;Min_cycle;Max_cycle;Signal;HPM_P1;HPM_P2
2022/11/05 00:09:28;;;;;;;5.50;4.90;;;15.70;63.80;;;;;;4984884;28;20870;-57
2022/11/05 00:17:24;;;;;;;8.13;5.43;;;15.70;64.00;;;;;;5041593;28;20501;-57
2022/11/05 00:19:49;;;;;;;6.53;5.23;;;15.70;64.20;;;;;;5044803;28;20844;-57
2022/11/05 00:25:15;;;;;;;5.63;5.03;;;15.70;64.20;;;;;;5045438;28;20248;-57
2022/11/05 00:27:45;;;;;;;6.63;5.90;;;15.70;64.20;;;;;;5046509;28;20447;-57
2022/11/05 00:30:15;;;;;;;7.70;5.97;;;15.70;64.30;;;;;;5044570;28;20860;-57
2022/11/05 00:32:41;;;;;;;6.50;5.80;;;15.70;64.40;;;;;;5040766;28;20558;-57
2022/11/05 00:35:07;;;;;;;6.83;6.10;;;15.60;64.30;;;;;;5042066;28;20553;-57
2022/11/05 00:37:33;;;;;;;7.00;5.50;;;15.60;64.50;;;;;;5036248;28;20251;-57
2022/11/05 00:39:58;;;;;;;8.20;5.83;;;15.60;64.60;;;;;;5044676;28;20863;-57
2022/11/05 00:45:09;;;;;;;6.80;5.47;;;15.50;64.70;;;;;;5043188;28;20224;-57
2022/11/05 00:50:35;;;;;;;6.63;5.60;;;15.60;65.00;;;;;;4980441;28;20497;-57
2022/11/05 00:53:01;;;;;;;6.13;5.23;;;15.50;64.90;;;;;;5031797;28;20451;-58
2022/11/05 00:55:47;;;;;;;10.60;6.20;;;15.60;65.10;;;;;;5046928;28;20243;-57
2022/11/05 00:58:17;;;;;;;6.80;5.60;;;15.60;65.00;;;;;;5044698;28;20864;-57
2022/11/05 01:00:48;;;;;;;6.50;5.10;;;15.60;65.10;;;;;;5043710;28;20439;-57
2022/11/05 01:03:16;;;;;;;6.30;5.67;;;15.60;65.10;;;;;;5038852;28;20431;-57
2022/11/05 01:05:46;;;;;;;6.80;6.10;;;15.50;65.00;;;;;;5044483;28;20808;-58
2022/11/05 01:08:13;;;;;;;7.13;5.13;;;15.60;65.20;;;;;;5045371;28;20447;-57
2022/11/05 01:10:48;;;;;;;6.43;5.83;;;15.60;65.20;;;;;;5049852;28;20491;-58
2022/11/05 01:13:17;;;;;;;6.73;5.13;;;15.60;65.30;;;;;;5044180;28;20447;-57
2022/11/05 01:15:43;;;;;;;5.40;5.00;;;15.60;65.40;;;;;;5042178;28;20509;-58
2022/11/05 01:18:09;;;;;;;7.23;5.70;;;15.60;65.40;;;;;;5039668;28;20447;-58
2022/11/05 01:20:35;;;;;;;6.50;4.90;;;15.60;65.50;;;;;;5038562;28;20880;-58
2022/11/05 01:23:00;;;;;;;9.47;5.77;;;15.60;65.60;;;;;;5043837;28;20201;-58
2022/11/05 01:25:33;;;;;;;6.60;5.90;;;15.60;65.80;;;;;;5108595;27;21111;-58
2022/11/05 01:27:59;;;;;;;9.43;5.47;;;15.60;65.80;;;;;;5112992;28;20589;-57
2022/11/05 01:30:25;;;;;;;7.53;5.70;;;15.70;65.90;;;;;;5105909;28;20196;-57
2022/11/05 01:32:50;;;;;;;6.13;5.60;;;15.60;65.80;;;;;;5106253;28;20441;-57
2022/11/05 01:35:17;;;;;;;12.50;7.30;;;15.70;66.10;;;;;;5105263;28;20186;-57
2022/11/05 01:37:43;;;;;;;6.63;5.93;;;15.70;66.20;;;;;;5105599;28;20193;-57
2022/11/05 01:40:15;;;;;;;7.97;6.13;;;15.70;66.20;;;;;;5105807;28;20435;-57
2022/11/05 01:42:40;;;;;;;6.00;5.40;;;15.70;66.20;;;;;;5103707;28;20529;-57
2022/11/05 01:45:06;;;;;;;6.90;5.43;;;15.70;66.10;;;;;;5107497;28;20566;-57
2022/11/05 01:47:52;;;;;;;6.67;5.50;;;15.70;66.30;;;;;;5106642;28;20616;-58
2022/11/05 01:50:39;;;;;;;5.83;5.23;;;15.70;66.30;;;;;;5097543;28;20891;-57
2022/11/05 01:53:14;;;;;;;7.37;5.60;;;15.70;66.20;;;;;;5110695;28;20452;-57
2022/11/05 01:55:46;;;;;;;7.73;6.00;;;15.70;66.10;;;;;;5104715;28;20539;-57
2022/11/05 01:58:16;;;;;;;8.20;6.00;;;15.70;66.00;;;;;;5101549;28;20441;-57
2022/11/05 02:00:42;;;;;;;7.47;5.70;;;15.70;65.90;;;;;;5103280;28;20444;-57
2022/11/05 02:03:08;;;;;;;6.00;5.40;;;15.70;65.70;;;;;;5103600;28;20499;-57
2022/11/05 02:05:34;;;;;;;7.20;6.20;;;15.80;65.80;;;;;;5107885;28;20190;-58
2022/11/05 02:08:00;;;;;;;6.10;5.50;;;15.80;65.60;;;;;;5106896;28;20435;-57
2022/11/05 02:10:27;;;;;;;6.30;5.70;;;15.80;65.80;;;;;;5108005;28;20482;-57
2022/11/05 02:12:52;;;;;;;5.83;5.07;;;15.80;65.90;;;;;;5105990;28;20441;-57
2022/11/05 02:15:38;;;;;;;5.03;4.53;;;15.80;65.80;;;;;;5100341;28;20487;-57
2022/11/05 02:18:37;;;;;;;6.83;4.97;;;15.80;65.40;;;;;;5103392;28;20251;-57
2022/11/05 02:21:31;;;;;;;6.10;4.63;;;15.80;65.30;;;;;;5098886;28;20448;-57
2022/11/05 02:24:12;;;;;;;5.80;4.80;;;15.80;65.30;;;;;;5105890;28;20488;-57
2022/11/05 02:27:11;;;;;;;4.90;4.50;;;15.80;65.20;;;;;;5105096;28;20448;-57
2022/11/05 02:29:46;;;;;;;4.50;4.10;;;15.80;65.40;;;;;;5105743;28;20460;-57
2022/11/05 02:32:27;;;;;;;6.57;4.93;;;15.80;65.60;;;;;;5105814;28;20898;-57
2022/11/05 02:35:13;;;;;;;5.30;4.87;;;15.80;65.60;;;;;;5100882;28;20487;-57
2022/11/05 02:38:05;;;;;;;7.87;5.43;;;15.80;65.60;;;;;;5090752;28;20529;-57
2022/11/05 02:40:51;;;;;;;5.57;4.97;;;15.80;65.60;;;;;;5091212;28;20479;-57
2022/11/05 02:43:45;;;;;;;5.20;4.50;;;15.80;65.60;;;;;;5090418;28;20448;-57
2022/11/05 02:46:19;;;;;;;5.93;5.43;;;15.80;65.80;;;;;;5092716;28;20979;-57
2022/11/05 02:48:58;;;;;;;4.73;3.97;;;15.80;65.90;;;;;;5090397;28;20453;-57
2022/11/05 02:51:45;;;;;;;4.90;4.40;;;15.80;65.90;;;;;;5091518;28;20460;-57
2022/11/05 02:54:44;;;;;;;4.77;4.30;;;15.80;65.80;;;;;;5089601;28;20433;-57
2022/11/05 02:57:09;;;;;;;6.73;4.40;;;15.80;65.60;;;;;;5055336;28;20464;-57
2022/11/05 02:59:35;;;;;;;4.80;4.30;;;15.80;65.60;;;;;;5090832;28;20417;-57
2022/11/05 03:02:02;;;;;;;4.17;3.77;;;15.80;65.40;;;;;;5093488;28;20195;-57
2022/11/05 03:04:29;;;;;;;4.90;4.00;;;15.80;65.30;;;;;;5092940;28;20575;-57
2022/11/05 03:07:09;;;;;;;4.20;3.80;;;15.80;65.10;;;;;;5088735;28;20445;-57
2022/11/05 03:09:43;;;;;;;4.40;4.00;;;15.80;65.20;;;;;;5090130;28;20801;-57
2022/11/05 03:12:30;;;;;;;4.73;3.60;;;15.80;65.40;;;;;;5088732;28;20464;-57
2022/11/05 03:15:22;;;;;;;4.67;3.90;;;15.80;65.40;;;;;;5085511;28;20445;-57
2022/11/05 03:18:01;;;;;;;3.90;3.20;;;15.80;65.40;;;;;;5085657;28;20570;-57
2022/11/05 03:20:38;;;;;;;3.77;3.37;;;15.80;65.50;;;;;;5092521;28;20437;-57
2022/11/05 03:23:17;;;;;;;5.23;3.70;;;15.80;65.40;;;;;;5090144;28;20540;-57
2022/11/05 03:25:48;;;;;;;3.70;3.30;;;15.80;65.30;;;;;;5089746;28;20548;-57
2022/11/05 03:28:16;;;;;;;6.00;3.30;;;15.80;65.40;;;;;;5086437;28;20439;-57
2022/11/05 03:30:43;;;;;;;3.50;3.10;;;15.80;65.30;;;;;;5091134;28;20928;-56
2022/11/05 03:33:17;;;;;;;3.30;3.00;;;15.80;65.10;;;;;;5089024;28;20468;-57
2022/11/05 03:35:47;;;;;;;4.00;3.50;;;15.80;65.90;;;;;;5092354;28;20443;-57
2022/11/05 03:38:23;;;;;;;3.30;3.03;;;15.90;66.00;;;;;;5091793;28;20445;-57
2022/11/05 03:40:52;;;;;;;3.40;3.10;;;15.90;65.30;;;;;;5088771;28;20520;-57
2022/11/05 03:43:21;;;;;;;4.07;3.67;;;15.80;65.20;;;;;;5089921;28;20535;-56
2022/11/05 03:45:54;;;;;;;3.93;3.63;;;15.90;65.40;;;;;;5088954;28;20468;-57
2022/11/05 03:48:23;;;;;;;3.63;3.27;;;15.90;65.40;;;;;;5084442;28;20487;-57
2022/11/05 03:50:59;;;;;;;3.90;3.60;;;15.80;65.30;;;;;;5086795;28;20437;-57
2022/11/05 03:53:29;;;;;;;8.50;3.77;;;15.90;65.40;;;;;;5082402;28;20954;-57
2022/11/05 03:56:00;;;;;;;4.27;3.80;;;15.90;65.30;;;;;;5094326;28;20494;-56
2022/11/05 03:58:27;;;;;;;4.43;4.03;;;15.90;65.10;;;;;;5086837;28;20532;-57
2022/11/05 04:00:53;;;;;;;3.43;3.13;;;15.80;65.00;;;;;;5087298;28;20787;-57
2022/11/05 04:03:19;;;;;;;4.10;3.67;;;15.80;65.10;;;;;;5089175;28;20448;-57
2022/11/05 04:13:22;;;;;;;4.20;3.80;;;15.80;65.10;;;;;;5087334;28;20191;-57
2022/11/05 04:14:03;;;;;;;4.73;4.33;;;15.80;64.90;;;;;;5068914;28;20453;-57
2022/11/05 04:19:12;;;;;;;5.30;4.33;;;15.80;65.10;;;;;;5095695;28;20408;-57
2022/11/05 04:24:42;;;;;;;4.90;4.50;;;15.80;65.70;;;;;;5089145;28;20986;-56
2022/11/05 04:27:10;;;;;;;4.80;4.30;;;15.70;65.80;;;;;;5090463;28;20433;-56
2022/11/05 04:32:19;;;;;;;5.20;4.80;;;15.70;66.30;;;;;;5090121;28;20871;-55
2022/11/05 04:34:45;;;;;;;5.37;4.90;;;15.50;66.50;;;;;;5089937;28;20473;-57
2022/11/05 04:37:11;;;;;;;6.23;5.23;;;15.50;66.50;;;;;;5087344;28;20537;-55
2022/11/05 04:39:36;;;;;;;4.63;4.23;;;15.50;67.10;;;;;;5088092;28;20206;-55
2022/11/05 04:42:02;;;;;;;5.30;4.80;;;15.50;67.10;;;;;;5086126;28;20270;-57
2022/11/05 04:44:27;;;;;;;5.20;4.80;;;15.50;67.00;;;;;;5083946;28;20671;-56
2022/11/05 04:46:53;;;;;;;5.73;4.67;;;15.40;67.20;;;;;;5086209;28;20643;-56
2022/11/05 04:49:18;;;;;;;5.50;5.00;;;15.50;67.10;;;;;;5088563;28;20218;-56
2022/11/05 04:51:44;;;;;;;5.40;4.83;;;15.50;67.20;;;;;;5088660;28;20199;-55
2022/11/05 04:54:09;;;;;;;5.80;5.00;;;15.50;67.40;;;;;;5084893;28;20325;-57
2022/11/05 04:56:35;;;;;;;6.17;4.97;;;15.40;67.40;;;;;;5087651;28;20193;-55
2022/11/05 04:59:01;;;;;;;5.87;5.27;;;15.40;67.70;;;;;;5083985;28;20206;-56
2022/11/05 05:01:26;;;;;;;5.93;5.43;;;15.50;67.70;;;;;;5087768;28;20195;-57
2022/11/05 05:03:53;;;;;;;6.17;5.00;;;15.50;67.70;;;;;;5085801;28;20238;-56
2022/11/05 05:06:19;;;;;;;6.90;6.30;;;15.50;67.70;;;;;;5089709;28;20286;-56
2022/11/05 05:08:46;;;;;;;6.30;5.70;;;15.50;67.70;;;;;;5091042;28;20463;-56
2022/11/05 05:11:14;;;;;;;6.40;5.80;;;15.50;67.70;;;;;;5079247;28;20498;-56
2022/11/05 05:13:40;;;;;;;6.97;6.27;;;15.50;67.80;;;;;;5086777;28;20532;-56
2022/11/05 05:16:07;;;;;;;8.07;6.70;;;15.50;67.80;;;;;;5090316;28;20582;-55
2022/11/05 05:18:34;;;;;;;8.23;5.80;;;15.50;67.70;;;;;;5085773;28;20235;-56
2022/11/05 05:23:45;;;;;;;6.53;5.87;;;15.50;67.80;;;;;;5095467;28;20496;-56
2022/11/05 05:26:10;;;;;;;6.30;5.70;;;15.50;67.90;;;;;;5087608;28;20808;-56
2022/11/05 05:28:36;;;;;;;6.67;6.07;;;15.50;68.10;;;;;;5088686;28;20433;-57
2022/11/05 05:31:02;;;;;;;7.10;6.00;;;15.50;68.10;;;;;;5087087;28;20214;-56
2022/11/05 05:33:27;;;;;;;7.83;7.03;;;15.50;68.10;;;;;;5088822;28;20187;-56
2022/11/05 05:35:56;;;;;;;7.80;7.10;;;15.50;68.20;;;;;;5089771;28;20191;-57
2022/11/05 05:38:22;;;;;;;7.20;6.50;;;15.50;68.30;;;;;;5086619;28;20282;-56
2022/11/05 05:40:49;;;;;;;7.40;6.70;;;15.50;68.00;;;;;;5086012;28;20587;-56
2022/11/05 05:43:14;;;;;;;7.90;7.20;;;15.50;68.10;;;;;;5082639;28;20299;-55
2022/11/05 05:45:40;;;;;;;7.40;6.47;;;15.50;67.90;;;;;;5085652;28;20512;-56
2022/11/05 05:48:05;;;;;;;9.30;7.50;;;15.40;68.20;;;;;;5084743;28;20217;-56
2022/11/05 05:50:31;;;;;;;8.60;7.80;;;15.30;68.20;;;;;;5089900;28;20218;-57
2022/11/05 05:52:56;;;;;;;9.63;8.63;;;15.20;69.00;;;;;;5089882;28;20184;-56
2022/11/05 05:55:22;;;;;;;9.33;8.43;;;15.20;68.70;;;;;;5091118;28;20206;-56
2022/11/05 05:57:48;;;;;;;8.10;7.40;;;15.30;68.70;;;;;;5087245;28;20198;-57
2022/11/05 06:00:14;;;;;;;8.43;7.50;;;15.30;68.60;;;;;;5086832;28;20198;-55
2022/11/05 06:02:40;;;;;;;9.17;8.10;;;15.30;68.20;;;;;;5085066;28;20485;-55
2022/11/05 06:05:06;;;;;;;10.23;8.90;;;15.30;68.50;;;;;;5085709;28;20242;-55
2022/11/05 06:07:32;;;;;;;9.60;8.80;;;15.40;68.50;;;;;;5087574;28;20433;-55
2022/11/05 06:09:57;;;;;;;10.30;8.67;;;15.40;68.50;;;;;;5088587;28;20463;-56
2022/11/05 06:12:23;;;;;;;9.87;8.90;;;15.30;68.30;;;;;;5087404;28;20639;-57
2022/11/05 06:14:48;;;;;;;10.40;9.40;;;15.20;68.70;;;;;;5083623;28;20200;-58
2022/11/05 06:17:14;;;;;;;9.97;8.30;;;15.20;68.80;;;;;;5094569;28;20267;-58
2022/11/05 06:19:39;;;;;;;9.90;8.97;;;15.20;69.20;;;;;;5090095;28;20194;-58
2022/11/05 06:22:05;;;;;;;9.30;8.40;;;14.80;69.90;;;;;;5092612;28;20187;-58
2022/11/05 06:24:30;;;;;;;11.27;10.07;;;14.90;70.30;;;;;;5088677;28;20262;-58
2022/11/05 06:26:56;;;;;;;9.47;8.53;;;14.90;70.10;;;;;;5088614;28;20248;-58
2022/11/05 06:29:21;;;;;;;10.97;9.37;;;15.00;69.80;;;;;;5088911;28;20198;-62
2022/11/05 06:31:47;;;;;;;11.87;10.37;;;15.10;69.40;;;;;;5105657;28;20807;-58
2022/11/05 06:34:13;;;;;;;11.40;10.30;;;15.00;69.10;;;;;;5094644;28;20659;-58
2022/11/05 06:36:39;;;;;;;10.77;9.67;;;15.00;69.00;;;;;;5084288;28;20202;-58
2022/11/05 06:39:08;;;;;;;11.13;9.97;;;15.00;68.60;;;;;;5089702;28;20237;-58
2022/11/05 06:41:33;;;;;;;10.00;8.93;;;14.90;69.10;;;;;;5090736;28;20480;-58
2022/11/05 06:43:59;;;;;;;11.23;10.03;;;15.10;68.90;;;;;;5088948;28;20519;-58
2022/11/05 06:46:24;;;;;;;11.43;10.33;;;15.20;68.60;;;;;;5093791;28;20200;-58
2022/11/05 06:48:50;;;;;;;10.33;9.30;;;15.30;68.60;;;;;;5088793;28;20215;-58
2022/11/05 06:51:16;;;;;;;14.33;10.10;;;15.30;68.00;;;;;;5089077;28;20183;-58
2022/11/05 06:53:41;;;;;;;10.93;9.83;;;15.40;67.80;;;;;;5092623;28;20191;-58
2022/11/05 06:56:08;;;;;;;11.13;9.97;;;15.50;67.50;;;;;;5087818;28;20214;-58
2022/11/05 06:58:34;;;;;;;11.13;9.93;;;15.50;67.10;;;;;;5090830;28;20191;-58
2022/11/05 07:01:07;;;;;;;11.60;10.20;;;15.50;66.90;;;;;;5092562;28;20908;-59
2022/11/05 07:03:33;;;;;;;12.50;10.70;;;15.60;66.60;;;;;;5100994;27;20191;-58
2022/11/05 07:06:00;;;;;;;11.40;10.20;;;15.70;66.30;;;;;;5089262;28;20460;-58
2022/11/05 07:08:31;;;;;;;11.70;10.50;;;15.70;66.10;;;;;;5096800;28;20875;-58
2022/11/05 07:10:57;;;;;;;11.60;10.20;;;15.70;66.00;;;;;;5089751;28;20444;-58
2022/11/05 07:13:22;;;;;;;10.67;9.67;;;15.60;66.60;;;;;;5087875;28;20441;-58
2022/11/05 07:15:48;;;;;;;11.10;10.00;;;15.60;66.90;;;;;;5092504;28;20449;-58
2022/11/05 07:18:15;;;;;;;11.97;10.70;;;15.70;66.70;;;;;;5088934;28;20257;-58
2022/11/05 07:20:40;;;;;;;11.33;10.20;;;15.80;66.50;;;;;;5089236;28;20190;-58
2022/11/05 07:23:11;;;;;;;15.40;11.33;;;15.90;66.40;;;;;;5088541;28;20442;-58
2022/11/05 07:25:37;;;;;;;12.13;10.93;;;16.00;66.20;;;;;;5087757;28;20219;-58
2022/11/05 07:28:03;;;;;;;10.50;9.40;;;16.00;65.80;;;;;;5087889;28;20755;-58
2022/11/05 07:30:29;;;;;;;12.80;10.13;;;16.00;65.40;;;;;;5086832;28;20456;-58
2022/11/05 07:32:55;;;;;;;12.13;10.93;;;16.00;65.50;;;;;;5089104;28;20222;-57
2022/11/05 07:35:20;;;;;;;12.70;10.67;;;16.00;66.00;;;;;;5090461;28;20442;-58
2022/11/05 07:37:52;;;;;;;14.37;11.57;;;16.10;65.20;;;;;;5089772;28;20215;-58
2022/11/05 07:40:19;;;;;;;13.27;11.30;;;16.00;65.30;;;;;;5086184;28;20441;-58
2022/11/05 07:42:47;;;;;;;30.67;28.17;;;16.00;64.90;;;;;;5089101;28;20483;-58
2022/11/05 07:45:13;;;;;;;14.10;12.40;;;16.10;65.00;;;;;;5088285;28;21131;-58
2022/11/05 07:47:49;;;;;;;13.07;11.80;;;16.10;65.00;;;;;;5090234;28;20452;-58
2022/11/05 07:50:16;;;;;;;14.07;11.27;;;16.10;64.90;;;;;;5089489;28;20439;-58
2022/11/05 07:52:42;;;;;;;12.73;11.53;;;16.10;64.70;;;;;;5091107;28;20440;-58
2022/11/05 07:55:09;;;;;;;15.53;13.37;;;16.10;64.50;;;;;;5089766;28;20805;-58
2022/11/05 07:57:49;;;;;;;17.73;12.97;;;16.10;64.60;;;;;;5086150;28;20638;-58
2022/11/05 08:00:20;;;;;;;14.20;11.67;;;16.20;65.00;;;;;;5084771;28;20452;-58
2022/11/05 08:03:02;;;;;;;14.90;13.30;;;16.10;65.00;;;;;;5085734;28;20487;-58
2022/11/05 08:05:29;;;;;;;15.37;12.23;;;15.90;65.30;;;;;;5084104;28;20485;-58
2022/11/05 08:07:57;;;;;;;13.80;12.40;;;15.90;65.60;;;;;;5081114;28;20433;-58
2022/11/05 08:10:23;;;;;;;15.00;13.50;;;15.80;65.80;;;;;;5079454;28;20445;-59
2022/11/05 08:12:52;;;;;;;13.20;11.77;;;15.80;65.70;;;;;;5090186;28;20471;-58
2022/11/05 08:15:17;;;;;;;17.40;13.27;;;15.70;65.70;;;;;;5088854;28;20448;-58
2022/11/05 08:17:43;;;;;;;18.13;12.90;;;15.80;65.60;;;;;;5089221;28;20441;-58
2022/11/05 08:20:09;;;;;;;16.50;12.87;;;15.80;65.50;;;;;;5089359;28;21066;-58
2022/11/05 08:22:35;;;;;;;14.60;12.43;;;15.60;65.10;;;;;;5089733;28;21306;-58
2022/11/05 08:25:01;;;;;;;18.43;13.00;;;15.40;66.00;;;;;;5089383;28;20528;-58
2022/11/05 08:27:26;;;;;;;16.80;12.87;;;15.30;66.40;;;;;;5083340;28;20535;-58
2022/11/05 08:29:52;;;;;;;16.20;12.30;;;15.20;66.90;;;;;;5081238;28;20199;-55
2022/11/05 08:32:18;;;;;;;17.90;11.50;;;15.20;67.20;;;;;;5088483;28;20195;-56
2022/11/05 08:34:43;;;;;;;15.27;13.10;;;15.00;67.40;;;;;;5084694;28;20188;-56
2022/11/05 08:37:09;;;;;;;13.00;11.70;;;14.90;67.70;;;;;;5090457;28;20183;-56
2022/11/05 08:39:34;;;;;;;15.93;12.97;;;14.80;68.90;;;;;;5088987;28;20545;-57
2022/11/05 08:42:00;;;;;;;17.27;12.50;;;14.70;68.90;;;;;;5090806;28;20222;-57
2022/11/05 08:44:25;;;;;;;17.70;12.97;;;14.70;69.20;;;;;;5088807;28;20237;-57
2022/11/05 08:46:51;;;;;;;13.80;12.27;;;14.40;68.70;;;;;;5094567;28;20197;-60
2022/11/05 08:49:17;;;;;;;14.40;11.50;;;14.40;68.90;;;;;;5088930;28;20600;-57
2022/11/05 08:51:43;;;;;;;13.87;10.67;;;14.40;69.40;;;;;;5088174;28;20184;-56
2022/11/05 08:54:09;;;;;;;14.87;10.40;;;14.50;69.10;;;;;;5088714;28;20669;-55
2022/11/05 08:56:35;;;;;;;13.77;10.97;;;14.20;68.90;;;;;;5089928;28;20430;-57
2022/11/05 08:59:00;;;;;;;12.83;9.50;;;14.10;69.20;;;;;;5087265;28;20194;-57
2022/11/05 09:01:26;;;;;;;10.77;8.40;;;14.10;69.10;;;;;;5089194;28;20199;-55
2022/11/05 09:03:52;;;;;;;10.67;8.93;;;14.00;69.80;;;;;;5081673;28;20262;-58
2022/11/05 09:06:21;;;;;;;9.60;7.67;;;14.10;69.40;;;;;;5084292;28;20195;-57
2022/11/05 09:08:46;;;;;;;9.33;7.70;;;14.00;69.00;;;;;;5084798;28;20234;-58
2022/11/05 09:11:12;;;;;;;9.23;6.70;;;14.00;69.10;;;;;;5090168;28;20440;-58
2022/11/05 09:13:38;;;;;;;10.30;7.30;;;14.00;69.00;;;;;;5096648;28;20187;-58
2022/11/05 09:16:04;;;;;;;9.27;7.17;;;14.00;69.00;;;;;;5089757;28;20904;-58
2022/11/05 09:18:30;;;;;;;7.87;7.13;;;13.90;69.30;;;;;;5089381;28;20191;-57
2022/11/05 09:20:55;;;;;;;9.03;7.40;;;14.00;69.20;;;;;;5090063;28;20842;-58
2022/11/05 09:23:21;;;;;;;7.70;7.00;;;14.00;69.60;;;;;;5093581;28;20449;-58
2022/11/05 09:25:47;;;;;;;7.43;6.63;;;14.10;69.50;;;;;;5089339;28;20226;-58
2022/11/05 09:28:20;;;;;;;7.53;6.77;;;14.30;69.20;;;;;;5093586;28;20194;-58
2022/11/05 09:30:51;;;;;;;8.70;6.73;;;14.20;68.40;;;;;;5092812;28;20235;-58
2022/11/05 09:33:18;;;;;;;8.10;7.10;;;14.10;69.10;;;;;;5077949;28;20944;-59
2022/11/05 09:35:44;;;;;;;7.87;6.93;;;14.10;69.40;;;;;;5080511;28;20476;-59
2022/11/05 09:38:10;;;;;;;6.37;5.70;;;14.10;69.30;;;;;;5081130;28;20985;-58
2022/11/05 09:40:51;;;;;;;10.07;6.27;;;14.20;69.30;;;;;;5085957;28;20486;-59
2022/11/05 09:43:21;;;;;;;6.37;5.77;;;14.30;69.20;;;;;;5082458;28;21024;-59
2022/11/05 09:45:50;;;;;;;6.73;5.33;;;14.40;69.10;;;;;;5084101;28;20484;-59
2022/11/05 09:48:17;;;;;;;6.80;6.10;;;14.30;69.10;;;;;;5084665;28;20453;-59
2022/11/05 09:50:44;;;;;;;7.40;5.60;;;14.40;68.90;;;;;;5085684;28;20446;-59
2022/11/05 09:53:18;;;;;;;6.33;5.70;;;14.40;69.20;;;;;;5083727;28;20521;-59
2022/11/05 09:55:47;;;;;;;7.47;6.10;;;14.30;68.90;;;;;;5091327;28;20433;-59
2022/11/05 09:58:31;;;;;;;8.60;6.97;;;14.30;69.20;;;;;;5088953;28;20452;-59
2022/11/05 10:00:57;;;;;;;7.07;6.00;;;14.40;68.90;;;;;;5087031;28;21019;-59
2022/11/05 10:03:25;;;;;;;7.70;6.83;;;14.30;69.00;;;;;;5091523;28;20432;-58
2022/11/05 10:05:53;;;;;;;6.53;5.90;;;14.50;68.60;;;;;;5091197;28;20449;-59
2022/11/05 10:08:26;;;;;;;6.70;6.10;;;14.40;68.60;;;;;;5088514;28;20444;-59
2022/11/05 10:11:02;;;;;;;6.30;5.50;;;14.20;68.60;;;;;;5086168;28;20437;-57
2022/11/05 10:13:33;;;;;;;7.33;6.63;;;14.20;69.20;;;;;;5083875;28;20445;-59
2022/11/05 10:16:17;;;;;;;7.20;6.23;;;14.10;69.10;;;;;;5090417;28;20475;-59
2022/11/05 10:18:49;;;;;;;7.50;6.27;;;14.20;68.90;;;;;;5069945;28;20451;-59
2022/11/05 10:21:18;;;;;;;7.13;6.37;;;14.30;68.80;;;;;;5082807;28;20445;-59
2022/11/05 10:23:44;;;;;;;7.33;6.47;;;14.50;68.60;;;;;;5087748;28;20467;-59
2022/11/05 10:26:18;;;;;;;8.17;7.30;;;14.50;68.10;;;;;;5089079;28;20444;-59
2022/11/05 10:28:44;;;;;;;9.17;6.87;;;14.40;68.00;;;;;;5087894;28;20436;-59
2022/11/05 10:31:13;;;;;;;6.43;5.73;;;14.20;68.40;;;;;;5087844;28;20443;-59
2022/11/05 10:33:54;;;;;;;7.63;6.63;;;14.30;68.60;;;;;;5081119;28;20207;-59
2022/11/05 10:36:30;;;;;;;8.10;6.70;;;14.50;67.90;;;;;;5089894;28;20456;-59
2022/11/05 10:39:00;;;;;;;6.70;5.97;;;14.40;68.10;;;;;;5088120;28;20507;-59
2022/11/05 10:41:51;;;;;;;7.20;6.53;;;14.50;68.20;;;;;;5088991;28;20804;-59
2022/11/05 10:44:27;;;;;;;8.90;6.47;;;14.40;67.70;;;;;;5087341;28;20530;-59
2022/11/05 10:47:05;;;;;;;10.57;7.43;;;14.50;68.20;;;;;;5088310;28;20806;-59
2022/11/05 10:49:58;;;;;;;7.90;7.10;;;14.50;68.50;;;;;;5088339;28;20452;-59
2022/11/05 10:52:37;;;;;;;10.60;7.27;;;14.60;67.90;;;;;;5088198;28;20449;-59
2022/11/05 10:55:17;;;;;;;7.57;6.87;;;14.70;67.50;;;;;;5080549;28;20524;-59
2022/11/05 10:57:43;;;;;;;9.30;7.03;;;14.50;68.50;;;;;;5079415;28;20455;-59
2022/11/05 11:00:17;;;;;;;8.83;7.60;;;14.70;68.00;;;;;;5086280;28;20445;-59
2022/11/05 11:02:44;;;;;;;9.17;8.00;;;14.70;67.90;;;;;;5087627;28;20193;-59
2022/11/05 11:05:18;;;;;;;8.90;8.00;;;14.80;67.80;;;;;;5089789;28;20876;-59
2022/11/05 11:07:50;;;;;;;9.50;8.50;;;15.00;67.40;;;;;;5091420;28;20924;-59
2022/11/05 11:10:21;;;;;;;8.90;7.50;;;14.90;67.40;;;;;;5087526;28;20809;-59
2022/11/05 11:12:48;;;;;;;9.60;7.53;;;14.90;67.40;;;;;;5092224;28;20439;-59
2022/11/05 11:15:18;;;;;;;13.10;7.50;;;15.00;67.10;;;;;;5089674;28;20939;-57
2022/11/05 11:17:44;;;;;;;10.37;7.37;;;15.00;66.90;;;;;;5090438;28;20477;-58
2022/11/05 11:20:20;;;;;;;9.30;7.67;;;14.90;67.10;;;;;;5090407;28;20480;-59
2022/11/05 11:23:15;;;;;;;9.30;8.30;;;14.90;67.20;;;;;;5094424;28;20200;-59
2022/11/05 11:25:56;;;;;;;9.60;8.07;;;14.90;68.10;;;;;;5086532;28;20489;-59
2022/11/05 11:28:31;;;;;;;11.87;10.63;;;14.70;68.00;;;;;;5084337;28;20480;-58
2022/11/05 11:31:08;;;;;;;8.60;7.67;;;14.80;68.80;;;;;;5089281;28;20440;-59
2022/11/05 11:33:35;;;;;;;9.03;7.50;;;14.70;67.40;;;;;;5087824;28;20445;-59
2022/11/05 11:36:01;;;;;;;10.43;8.00;;;14.90;67.10;;;;;;5083298;28;20456;-57
2022/11/05 11:38:32;;;;;;;8.53;7.07;;;15.00;66.80;;;;;;5087961;28;20498;-57
2022/11/05 11:41:02;;;;;;;9.67;7.50;;;15.00;66.50;;;;;;5085771;28;20522;-57
2022/11/05 11:43:32;;;;;;;9.03;7.80;;;15.10;66.20;;;;;;5086842;28;20490;-56
2022/11/05 11:45:58;;;;;;;8.53;7.67;;;15.20;65.30;;;;;;5087137;28;20457;-55
2022/11/05 11:48:28;;;;;;;9.43;7.93;;;15.20;65.40;;;;;;5088480;28;20921;-55
2022/11/05 11:50:55;;;;;;;8.93;8.00;;;15.30;65.60;;;;;;5089635;28;20195;-55
2022/11/05 11:53:26;;;;;;;10.33;7.93;;;15.40;65.40;;;;;;5087114;28;20860;-54
2022/11/05 11:56:11;;;;;;;10.90;7.90;;;15.50;65.10;;;;;;5089964;28;20433;-55
2022/11/05 11:58:44;;;;;;;10.07;8.10;;;15.60;64.50;;;;;;5090851;28;20525;-54
2022/11/05 12:01:37;;;;;;;9.63;8.20;;;15.40;64.00;;;;;;5087204;28;20495;-55
2022/11/05 12:04:29;;;;;;;10.33;8.50;;;15.40;64.00;;;;;;5086782;28;20488;-55
2022/11/05 12:07:27;;;;;;;9.67;8.00;;;15.40;63.80;;;;;;5081764;28;20461;-56
2022/11/05 12:10:14;;;;;;;9.77;7.50;;;15.50;64.30;;;;;;5087418;28;20445;-55
2022/11/05 12:13:16;;;;;;;9.20;7.50;;;15.60;64.60;;;;;;5079276;28;20447;-55
2022/11/05 12:15:49;;;;;;;8.53;7.60;;;15.60;63.90;;;;;;5082528;28;20445;-55
2022/11/05 12:18:27;;;;;;;10.10;7.27;;;15.60;63.60;;;;;;5089563;28;20453;-54
2022/11/05 12:21:17;;;;;;;9.97;7.43;;;15.70;63.30;;;;;;5091265;28;20530;-55
2022/11/05 12:24:09;;;;;;;11.60;8.30;;;15.60;63.10;;;;;;5081860;28;20487;-55
2022/11/05 12:26:54;;;;;;;10.67;7.47;;;15.50;62.90;;;;;;5086400;28;20468;-54
2022/11/05 12:29:47;;;;;;;9.37;6.70;;;15.70;62.80;;;;;;5088527;28;20952;-53
2022/11/05 12:32:34;;;;;;;8.60;6.73;;;15.60;62.90;;;;;;5085859;28;20525;-55
2022/11/05 12:35:30;;;;;;;10.33;8.00;;;15.60;63.40;;;;;;5083201;28;20466;-56
2022/11/05 12:37:55;;;;;;;8.50;7.60;;;15.60;62.80;;;;;;5089620;28;20522;-53
2022/11/05 12:40:50;;;;;;;9.77;7.93;;;15.70;63.50;;;;;;5085444;28;20445;-54
2022/11/05 12:43:36;;;;;;;9.33;7.87;;;15.70;62.40;;;;;;5087061;28;20999;-54
2022/11/05 12:46:31;;;;;;;10.00;7.80;;;15.80;62.40;;;;;;5083277;28;20469;-55
2022/11/05 12:49:24;;;;;;;7.57;6.77;;;15.90;62.20;;;;;;5080708;28;20453;-54
2022/11/05 12:51:59;;;;;;;9.27;6.50;;;15.80;61.70;;;;;;5083738;28;20887;-55
2022/11/05 12:54:24;;;;;;;8.97;6.90;;;15.90;61.70;;;;;;5081195;28;20463;-55
2022/11/05 12:56:57;;;;;;;7.90;7.10;;;16.00;60.90;;;;;;5087916;28;20793;-55
2022/11/05 12:59:52;;;;;;;9.67;6.70;;;15.90;59.70;;;;;;5100722;28;20199;-56
2022/11/05 13:02:39;;;;;;;10.60;6.53;;;15.90;59.80;;;;;;5062471;28;20442;-54
2022/11/05 13:05:34;;;;;;;10.30;7.80;;;16.00;59.90;;;;;;5085679;28;20481;-55
2022/11/05 13:08:08;;;;;;;7.20;6.37;;;16.00;59.80;;;;;;5085986;28;20809;-55
2022/11/05 13:10:41;;;;;;;6.93;6.23;;;16.00;59.40;;;;;;5079883;28;20461;-55
2022/11/05 13:13:22;;;;;;;7.80;6.33;;;16.00;59.50;;;;;;5082147;28;20971;-54
2022/11/05 13:16:03;;;;;;;14.30;7.23;;;16.00;59.90;;;;;;5085246;28;20503;-55
2022/11/05 13:18:39;;;;;;;8.30;7.30;;;15.90;59.90;;;;;;5076235;28;20449;-55
2022/11/05 13:21:07;;;;;;;8.03;6.57;;;16.00;59.90;;;;;;5085858;28;20441;-55
2022/11/05 13:24:11;;;;;;;7.57;6.77;;;16.00;59.60;;;;;;5084504;28;20485;-56
2022/11/05 13:26:37;;;;;;;7.33;6.23;;;16.00;59.70;;;;;;5081725;28;20456;-55
2022/11/05 13:29:16;;;;;;;7.00;5.90;;;16.00;59.70;;;;;;5087843;28;20945;-53
2022/11/05 13:31:48;;;;;;;9.43;6.70;;;16.10;59.60;;;;;;5082960;28;20195;-53
2022/11/05 13:34:13;;;;;;;8.00;6.13;;;15.90;58.90;;;;;;5082244;28;20497;-54
2022/11/05 13:39:57;;;;;;;8.13;6.73;;;15.80;59.20;;;;;;5086527;28;20562;-55
2022/11/05 13:42:40;;;;;;;6.20;5.60;;;15.80;59.00;;;;;;5087942;28;20456;-54
2022/11/05 13:45:24;;;;;;;7.60;5.70;;;15.80;59.00;;;;;;5082925;28;20496;-55
2022/11/05 13:47:59;;;;;;;7.40;5.33;;;16.00;58.70;;;;;;5084618;28;20805;-56